createdAt,value
2023-04-30T00:00:43.490Z,87.10
2023-04-30T00:03:13.746Z,87.16
2023-04-30T00:05:42.463Z,86.36
2023-04-30T00:08:11.258Z,86.03
2023-04-30T00:10:39.918Z,85.61
2023-04-30T00:13:10.340Z,86.29
2023-04-30T00:15:39.030Z,85.83
2023-04-30T00:18:08.204Z,86.63
2023-04-30T00:20:38.380Z,86.22
2023-04-30T00:23:07.057Z,86.81
2023-04-30T00:25:36.473Z,87.03
2023-04-30T00:28:05.386Z,87.63
2023-04-30T00:30:34.065Z,87.63
2023-04-30T00:33:02.939Z,87.53
2023-04-30T00:35:31.763Z,87.68
2023-04-30T00:38:02.088Z,87.23
2023-04-30T00:40:31.822Z,87.82
2023-04-30T00:43:00.647Z,87.94
2023-04-30T00:45:29.288Z,88.29
2023-04-30T00:47:58.220Z,87.97
2023-04-30T00:50:27.435Z,88.25
2023-04-30T00:53:07.330Z,88.06
2023-04-30T00:55:36.612Z,88.14
2023-04-30T00:58:05.368Z,88.45
2023-04-30T01:00:35.555Z,88.25
2023-04-30T01:03:05.317Z,88.25
2023-04-30T01:05:33.980Z,88.59
2023-04-30T01:08:04.205Z,87.61
2023-04-30T01:10:43.988Z,87.69
2023-04-30T01:13:24.011Z,87.86
2023-04-30T01:16:04.301Z,88.36
2023-04-30T01:18:43.360Z,87.72
2023-04-30T01:21:13.664Z,87.71
2023-04-30T01:24:16.858Z,87.86
2023-04-30T01:27:04.658Z,87.86
2023-04-30T01:29:37.700Z,88.29
2023-04-30T01:32:06.610Z,88.09
2023-04-30T01:34:35.326Z,87.71
2023-04-30T01:37:20.781Z,87.39
2023-04-30T01:40:10.774Z,87.82
2023-04-30T01:43:00.350Z,88.10
2023-04-30T01:45:58.817Z,87.22
2023-04-30T01:48:44.900Z,87.17
2023-04-30T01:51:26.407Z,87.10
2023-04-30T01:54:02.361Z,87.30
2023-04-30T01:56:38.566Z,87.11
2023-04-30T01:59:09.734Z,87.27
2023-04-30T02:01:41.022Z,86.71
2023-04-30T02:04:09.879Z,86.81
2023-04-30T02:06:38.841Z,87.05
2023-04-30T02:09:07.926Z,87.08
2023-04-30T02:11:38.589Z,87.09
2023-04-30T02:14:07.561Z,86.16
2023-04-30T02:16:36.305Z,86.06
2023-04-30T02:19:06.501Z,86.04
2023-04-30T02:21:35.390Z,85.86
2023-04-30T02:24:04.074Z,85.56
2023-04-30T02:26:32.993Z,85.48
2023-04-30T02:29:01.690Z,85.09
2023-04-30T02:31:30.652Z,84.80
2023-04-30T02:33:59.346Z,85.61
2023-04-30T02:36:29.420Z,85.98
2023-04-30T02:38:58.630Z,86.07
2023-04-30T02:41:27.579Z,85.40
2023-04-30T02:43:56.666Z,86.43
2023-04-30T02:46:25.466Z,86.13
2023-04-30T02:48:54.117Z,86.18
2023-04-30T02:51:22.869Z,86.22
2023-04-30T02:53:52.978Z,86.52
2023-04-30T02:56:21.686Z,86.33
2023-04-30T02:58:50.506Z,86.24
2023-04-30T03:01:19.170Z,86.33
2023-04-30T03:03:47.957Z,86.07
2023-04-30T03:06:16.981Z,85.43
2023-04-30T03:08:45.850Z,85.23
2023-04-30T03:11:16.258Z,85.24
2023-04-30T03:13:45.879Z,84.20
2023-04-30T03:16:14.740Z,83.71
2023-04-30T03:18:43.423Z,82.72
2023-04-30T03:21:12.478Z,82.17
2023-04-30T03:23:41.551Z,81.90
2023-04-30T03:26:10.392Z,81.81
2023-04-30T03:28:40.801Z,81.62
2023-04-30T03:31:09.507Z,81.74
2023-04-30T03:33:38.457Z,81.42
2023-04-30T03:36:07.740Z,80.93
2023-04-30T03:38:36.432Z,80.80
2023-04-30T03:41:05.242Z,81.82
2023-04-30T03:43:35.126Z,82.50
2023-04-30T03:46:05.395Z,83.17
2023-04-30T03:48:36.785Z,82.53
2023-04-30T03:51:12.722Z,81.85
2023-04-30T03:53:41.803Z,81.80
2023-04-30T03:56:10.662Z,81.95
2023-04-30T03:58:39.451Z,81.49
2023-04-30T04:01:09.667Z,81.45
2023-04-30T04:03:39.183Z,81.53
2023-04-30T04:06:08.429Z,81.32
2023-04-30T04:08:37.622Z,82.08
2023-04-30T04:11:07.446Z,81.86
2023-04-30T04:13:36.783Z,82.07
2023-04-30T04:16:07.223Z,82.86
2023-04-30T04:18:37.986Z,83.51
2023-04-30T04:21:08.035Z,83.52
2023-04-30T04:23:37.412Z,83.98
2023-04-30T04:26:06.233Z,84.24
2023-04-30T04:28:35.504Z,84.36
2023-04-30T04:31:05.313Z,84.67
2023-04-30T04:33:34.484Z,83.94
2023-04-30T04:36:05.589Z,83.81
2023-04-30T04:38:35.057Z,83.94
2023-04-30T04:41:05.554Z,83.62
2023-04-30T04:43:34.651Z,83.53
2023-04-30T04:46:04.480Z,83.46
2023-04-30T04:48:33.626Z,83.12
2023-04-30T04:51:04.275Z,82.96
2023-04-30T04:53:34.857Z,82.89
2023-04-30T04:56:04.649Z,82.50
2023-04-30T04:58:34.030Z,81.69
2023-04-30T05:01:06.236Z,81.34
2023-04-30T05:03:37.150Z,81.25
2023-04-30T05:06:08.881Z,81.01
2023-04-30T05:08:38.645Z,80.71
2023-04-30T05:11:07.633Z,80.29
2023-04-30T05:13:36.304Z,80.15
2023-04-30T05:16:06.565Z,79.75
2023-04-30T05:18:35.710Z,79.52
2023-04-30T05:21:06.241Z,79.47
2023-04-30T05:23:35.342Z,79.36
2023-04-30T05:26:05.692Z,79.11
2023-04-30T05:28:35.804Z,78.75
2023-04-30T05:31:04.956Z,78.73
2023-04-30T05:33:33.994Z,79.28
2023-04-30T05:36:03.177Z,79.16
2023-04-30T05:38:33.539Z,79.26
2023-04-30T05:41:02.686Z,78.71
2023-04-30T05:43:32.548Z,79.03
2023-04-30T05:46:01.912Z,79.74
2023-04-30T05:48:32.067Z,79.24
2023-04-30T05:51:02.505Z,79.05
2023-04-30T05:53:33.644Z,79.13
2023-04-30T05:56:03.132Z,78.57
2023-04-30T05:58:32.890Z,77.85
2023-04-30T06:01:02.030Z,79.16
2023-04-30T06:03:31.081Z,79.32
2023-04-30T06:06:00.585Z,79.02
2023-04-30T06:08:29.761Z,79.67
2023-04-30T06:11:00.665Z,79.42
2023-04-30T06:13:29.784Z,78.83
2023-04-30T06:15:59.012Z,78.21
2023-04-30T06:18:29.404Z,78.13
2023-04-30T06:20:58.463Z,77.54
2023-04-30T06:23:27.451Z,77.88
2023-04-30T06:25:56.589Z,78.29
2023-04-30T06:28:27.378Z,79.55
2023-04-30T06:30:56.666Z,76.91
2023-04-30T06:33:25.487Z,76.32
2023-04-30T06:35:55.710Z,75.30
2023-04-30T06:38:24.680Z,75.01
2023-04-30T06:40:58.095Z,74.23
2023-04-30T06:43:28.799Z,74.01
2023-04-30T06:45:57.680Z,72.99
2023-04-30T06:48:27.201Z,71.65
2023-04-30T06:50:58.117Z,71.62
2023-04-30T06:53:27.171Z,71.55
2023-04-30T06:55:56.193Z,72.05
2023-04-30T06:58:25.219Z,71.22
2023-04-30T07:00:56.000Z,71.30
2023-04-30T07:03:26.489Z,71.98
2023-04-30T07:05:55.693Z,71.86
2023-04-30T07:08:24.886Z,71.43
2023-04-30T07:11:00.440Z,70.81
2023-04-30T07:13:29.691Z,71.54
2023-04-30T07:16:00.931Z,71.85
2023-04-30T07:18:31.734Z,72.54
2023-04-30T07:21:06.564Z,72.01
2023-04-30T07:23:35.803Z,71.79
2023-04-30T07:26:05.520Z,71.46
2023-04-30T07:28:34.753Z,70.41
2023-04-30T07:31:07.844Z,69.94
2023-04-30T07:33:38.708Z,69.41
2023-04-30T07:36:08.615Z,70.76
2023-04-30T07:38:42.842Z,70.54
2023-04-30T07:41:15.233Z,71.19
2023-04-30T07:43:49.043Z,71.42
2023-04-30T07:46:19.835Z,72.51
2023-04-30T07:48:49.495Z,71.59
2023-04-30T07:51:23.434Z,70.76
2023-04-30T07:53:54.694Z,69.72
2023-04-30T07:56:31.784Z,69.47
2023-04-30T07:59:03.390Z,70.05
2023-04-30T08:01:34.029Z,70.52
2023-04-30T08:04:03.370Z,68.75
2023-04-30T08:06:34.877Z,68.24
2023-04-30T08:09:05.033Z,68.58
2023-04-30T08:11:34.772Z,66.95
2023-04-30T08:14:04.810Z,67.28
2023-04-30T08:16:39.780Z,67.77
2023-04-30T08:19:11.499Z,67.74
2023-04-30T08:21:41.959Z,67.63
2023-04-30T08:24:11.221Z,66.83
2023-04-30T08:26:40.312Z,68.48
2023-04-30T08:29:09.953Z,70.35
2023-04-30T08:31:43.113Z,66.43
2023-04-30T08:34:13.722Z,69.00
2023-04-30T08:36:46.222Z,66.73
2023-04-30T08:39:15.854Z,64.86
2023-04-30T08:41:56.409Z,65.36
2023-04-30T08:44:29.277Z,64.78
2023-04-30T08:47:01.604Z,66.96
2023-04-30T08:49:34.691Z,65.54
2023-04-30T08:52:07.597Z,65.51
2023-04-30T08:54:38.250Z,65.49
2023-04-30T08:57:10.651Z,66.03
2023-04-30T08:59:40.068Z,66.72
2023-04-30T09:02:13.560Z,67.73
2023-04-30T09:04:47.699Z,65.88
2023-04-30T09:07:19.838Z,65.60
2023-04-30T09:09:48.728Z,64.53
2023-04-30T09:12:20.350Z,63.76
2023-04-30T09:15:03.841Z,63.80
2023-04-30T09:17:38.919Z,63.86
2023-04-30T09:20:24.139Z,64.41
2023-04-30T09:23:08.968Z,65.06
2023-04-30T09:25:42.514Z,64.16
2023-04-30T09:28:16.762Z,62.36
2023-04-30T09:30:46.695Z,62.17
2023-04-30T09:33:17.555Z,62.78
2023-04-30T09:35:47.109Z,62.02
2023-04-30T09:38:31.117Z,58.78
2023-04-30T09:41:05.263Z,58.29
2023-04-30T09:43:34.141Z,58.96
2023-04-30T09:46:08.022Z,57.62
2023-04-30T09:48:45.982Z,57.71
2023-04-30T09:51:20.690Z,57.50
2023-04-30T09:53:52.084Z,55.14
2023-04-30T09:56:24.720Z,53.92
2023-04-30T09:58:55.947Z,54.71
2023-04-30T10:01:29.027Z,55.31
2023-04-30T10:04:00.614Z,57.87
2023-04-30T10:06:35.607Z,59.40
2023-04-30T10:09:08.267Z,57.50
2023-04-30T10:11:43.115Z,53.92
2023-04-30T10:14:20.079Z,51.66
2023-04-30T10:16:59.316Z,52.17
2023-04-30T10:19:37.643Z,51.71
2023-04-30T10:22:06.818Z,56.94
2023-04-30T10:24:39.718Z,60.30
2023-04-30T10:27:09.006Z,52.25
2023-04-30T10:29:37.714Z,48.95
2023-04-30T10:32:09.400Z,49.43
2023-04-30T10:34:56.961Z,50.49
2023-04-30T10:37:36.102Z,48.66
2023-04-30T10:40:09.324Z,48.38
2023-04-30T10:42:38.861Z,49.18
2023-04-30T10:45:12.958Z,47.61
2023-04-30T10:47:45.902Z,46.89
2023-04-30T10:50:18.056Z,42.63
2023-04-30T10:52:47.843Z,43.19
2023-04-30T10:55:19.894Z,44.03
2023-04-30T10:57:51.667Z,45.13
2023-04-30T11:00:25.961Z,42.75
2023-04-30T11:03:00.845Z,40.81
2023-04-30T11:05:39.976Z,40.01
2023-04-30T11:08:13.607Z,40.18
2023-04-30T11:11:01.064Z,40.59
2023-04-30T11:13:30.275Z,41.35
2023-04-30T11:16:05.682Z,39.83
2023-04-30T11:18:35.811Z,38.24
2023-04-30T11:21:07.331Z,39.41
2023-04-30T11:23:40.315Z,37.83
2023-04-30T11:26:12.972Z,38.69
2023-04-30T11:28:54.441Z,37.54
2023-04-30T11:31:25.288Z,39.52
2023-04-30T11:34:00.804Z,39.23
2023-04-30T11:36:33.959Z,38.10
2023-04-30T11:39:07.986Z,37.36
2023-04-30T11:41:55.812Z,35.96
2023-04-30T11:44:28.873Z,34.89
2023-04-30T11:47:03.094Z,36.92
2023-04-30T11:49:36.415Z,33.92
2023-04-30T11:52:08.580Z,33.91
2023-04-30T11:54:39.259Z,37.15
2023-04-30T11:57:08.251Z,34.70
2023-04-30T11:59:44.012Z,33.84
2023-04-30T12:02:19.309Z,32.70
2023-04-30T12:04:50.188Z,33.26
2023-04-30T12:07:24.135Z,30.64
2023-04-30T12:09:57.467Z,32.40
2023-04-30T12:12:32.133Z,31.32
2023-04-30T12:15:12.892Z,30.76
2023-04-30T12:17:42.275Z,32.02
2023-04-30T12:20:13.272Z,33.99
2023-04-30T12:22:45.155Z,31.84
2023-04-30T12:25:17.918Z,31.06
2023-04-30T12:27:49.607Z,29.52
2023-04-30T12:30:23.260Z,29.43
2023-04-30T12:32:59.208Z,30.29
2023-04-30T12:35:32.655Z,31.10
2023-04-30T12:38:10.563Z,28.92
2023-04-30T12:40:40.895Z,27.80
2023-04-30T12:43:10.785Z,27.63
2023-04-30T12:45:52.896Z,28.40
2023-04-30T12:48:25.085Z,28.89
2023-04-30T12:50:57.092Z,29.22
2023-04-30T12:53:27.595Z,25.88
2023-04-30T12:56:15.519Z,26.15
2023-04-30T12:58:50.895Z,26.77
2023-04-30T13:01:21.739Z,26.54
2023-04-30T13:03:50.813Z,26.19
2023-04-30T13:06:21.390Z,26.06
2023-04-30T13:08:58.573Z,25.52
2023-04-30T13:11:28.609Z,24.26
2023-04-30T13:14:00.583Z,25.28
2023-04-30T13:16:31.222Z,25.45
2023-04-30T13:19:00.364Z,24.01
2023-04-30T13:21:29.104Z,23.63
2023-04-30T13:23:59.956Z,23.95
2023-04-30T13:26:29.787Z,23.63
2023-04-30T13:28:58.943Z,24.61
2023-04-30T13:31:27.859Z,23.94
2023-04-30T13:33:57.539Z,23.93
2023-04-30T13:36:27.184Z,24.27
2023-04-30T13:38:55.990Z,23.97
2023-04-30T13:41:26.988Z,22.66
2023-04-30T13:43:56.362Z,22.84
2023-04-30T13:46:26.554Z,23.24
2023-04-30T13:48:56.181Z,23.33
2023-04-30T13:51:25.494Z,22.18
2023-04-30T13:53:54.640Z,22.13
2023-04-30T13:56:26.937Z,22.19
2023-04-30T13:58:55.858Z,21.37
2023-04-30T14:01:25.276Z,20.14
2023-04-30T14:03:54.131Z,20.45
2023-04-30T14:06:23.035Z,19.69
2023-04-30T14:08:53.569Z,20.42
2023-04-30T14:11:23.255Z,19.99
2023-04-30T14:13:53.932Z,20.63
2023-04-30T14:16:24.004Z,17.87
2023-04-30T14:18:52.875Z,19.43
2023-04-30T14:21:22.050Z,19.04
2023-04-30T14:23:52.243Z,18.43
2023-04-30T14:26:21.802Z,17.78
2023-04-30T14:28:50.547Z,18.79
2023-04-30T14:31:23.441Z,18.96
2023-04-30T14:33:52.140Z,18.28
2023-04-30T14:36:21.021Z,18.50
2023-04-30T14:38:49.728Z,18.09
2023-04-30T14:41:18.454Z,19.29
2023-04-30T14:43:47.365Z,18.90
2023-04-30T14:46:16.221Z,20.43
2023-04-30T14:48:46.601Z,19.29
2023-04-30T14:51:15.225Z,17.58
2023-04-30T14:53:43.915Z,16.44
2023-04-30T14:56:13.169Z,16.20
2023-04-30T14:58:41.886Z,17.12
2023-04-30T15:01:10.907Z,18.49
2023-04-30T15:03:40.174Z,17.82
2023-04-30T15:06:11.349Z,17.69
2023-04-30T15:08:40.857Z,18.86
2023-04-30T15:11:10.878Z,17.80
2023-04-30T15:13:40.263Z,17.71
2023-04-30T15:16:09.603Z,18.35
2023-04-30T15:18:40.559Z,17.21
2023-04-30T15:21:11.248Z,19.19
2023-04-30T15:23:40.113Z,18.83
2023-04-30T15:26:09.533Z,18.37
2023-04-30T15:28:38.628Z,18.89
2023-04-30T15:31:07.510Z,17.74
2023-04-30T15:33:39.735Z,18.95
2023-04-30T15:36:11.689Z,18.11
2023-04-30T15:38:40.744Z,20.12
2023-04-30T15:41:09.385Z,20.49
2023-04-30T15:43:38.471Z,20.08
2023-04-30T15:46:07.343Z,21.39
2023-04-30T15:48:35.979Z,19.81
2023-04-30T15:51:04.893Z,22.15
2023-04-30T15:53:35.182Z,21.20
2023-04-30T15:56:04.785Z,22.51
2023-04-30T15:58:33.566Z,24.47
2023-04-30T16:01:02.477Z,25.20
2023-04-30T16:03:32.534Z,25.62
2023-04-30T16:06:02.994Z,22.89
2023-04-30T16:08:31.936Z,21.91
2023-04-30T16:11:03.881Z,22.73
2023-04-30T16:13:32.722Z,25.06
2023-04-30T16:16:01.546Z,24.18
2023-04-30T16:18:30.917Z,25.02
2023-04-30T16:21:00.679Z,24.71
2023-04-30T16:23:29.483Z,23.30
2023-04-30T16:25:58.456Z,24.12
2023-04-30T16:28:28.684Z,25.08
2023-04-30T16:30:57.635Z,24.50
2023-04-30T16:33:26.579Z,25.17
2023-04-30T16:35:55.709Z,26.50
2023-04-30T16:38:25.515Z,26.26
2023-04-30T16:40:55.197Z,29.34
2023-04-30T16:43:24.404Z,27.82
2023-04-30T16:45:54.674Z,26.15
2023-04-30T16:48:23.669Z,28.27
2023-04-30T16:50:52.777Z,27.52
2023-04-30T16:53:22.261Z,28.78
2023-04-30T16:55:53.185Z,29.17
2023-04-30T16:58:23.306Z,28.88
2023-04-30T17:00:56.191Z,29.32
2023-04-30T17:03:25.427Z,30.87
2023-04-30T17:05:54.965Z,29.46
2023-04-30T17:08:23.747Z,31.25
2023-04-30T17:10:52.782Z,32.23
2023-04-30T17:13:21.667Z,34.00
2023-04-30T17:15:50.526Z,33.75
2023-04-30T17:18:20.840Z,35.22
2023-04-30T17:20:49.799Z,36.12
2023-04-30T17:23:19.460Z,36.01
2023-04-30T17:25:49.056Z,37.58
2023-04-30T17:28:17.769Z,38.93
2023-04-30T17:30:47.558Z,39.24
2023-04-30T17:33:16.228Z,39.92
2023-04-30T17:35:46.980Z,41.06
2023-04-30T17:38:15.749Z,42.59
2023-04-30T17:40:44.625Z,43.17
2023-04-30T17:43:13.536Z,43.16
2023-04-30T17:45:43.877Z,44.36
2023-04-30T17:48:13.001Z,44.99
2023-04-30T17:50:41.906Z,45.99
2023-04-30T17:53:12.295Z,46.69
2023-04-30T17:55:41.716Z,47.12
2023-04-30T17:58:11.577Z,47.84
2023-04-30T18:00:42.339Z,48.37
2023-04-30T18:03:11.359Z,48.86
2023-04-30T18:05:40.328Z,49.08
2023-04-30T18:08:10.282Z,49.45
2023-04-30T18:10:40.559Z,50.10
2023-04-30T18:13:10.339Z,50.60
2023-04-30T18:15:38.993Z,50.84
2023-04-30T18:18:08.159Z,50.97
2023-04-30T18:20:37.117Z,51.29
2023-04-30T18:23:08.431Z,52.79
2023-04-30T18:25:40.335Z,53.07
2023-04-30T18:28:09.255Z,53.03
2023-04-30T18:30:38.778Z,53.04
2023-04-30T18:33:09.135Z,53.72
2023-04-30T18:35:38.420Z,54.19
2023-04-30T18:38:08.215Z,54.23
2023-04-30T18:40:36.965Z,54.04
2023-04-30T18:43:07.359Z,53.92
2023-04-30T18:45:36.705Z,54.16
2023-04-30T18:48:06.043Z,54.89
2023-04-30T18:50:34.954Z,55.27
2023-04-30T18:53:03.774Z,55.63
2023-04-30T18:55:32.440Z,55.43
2023-04-30T18:58:01.434Z,55.84
2023-04-30T19:00:31.556Z,56.10
2023-04-30T19:03:00.714Z,56.23
2023-04-30T19:05:29.436Z,56.19
2023-04-30T19:08:00.851Z,56.07
2023-04-30T19:10:29.537Z,56.31
2023-04-30T19:12:58.572Z,56.65
2023-04-30T19:15:29.759Z,57.04
2023-04-30T19:17:59.920Z,57.61
2023-04-30T19:20:28.969Z,57.66
2023-04-30T19:22:57.702Z,56.55
2023-04-30T19:25:26.897Z,57.31
2023-04-30T19:27:56.454Z,57.74
2023-04-30T19:30:25.523Z,57.33
2023-04-30T19:32:55.297Z,57.64
2023-04-30T19:35:25.815Z,58.25
2023-04-30T19:37:55.705Z,58.78
2023-04-30T19:40:29.947Z,58.83
2023-04-30T19:42:59.768Z,57.88
2023-04-30T19:45:28.857Z,58.63
2023-04-30T19:47:57.735Z,58.43
2023-04-30T19:50:28.169Z,59.16
2023-04-30T19:52:57.035Z,58.77
2023-04-30T19:55:25.813Z,58.71
2023-04-30T19:57:54.572Z,58.64
2023-04-30T20:00:23.686Z,58.74
2023-04-30T20:02:52.762Z,58.29
2023-04-30T20:05:21.861Z,59.60
2023-04-30T20:07:51.942Z,59.22
2023-04-30T20:10:20.930Z,59.35
2023-04-30T20:12:54.054Z,59.67
2023-04-30T20:15:23.562Z,60.16
2023-04-30T20:17:53.531Z,60.46
2023-04-30T20:20:24.678Z,59.61
2023-04-30T20:22:56.589Z,59.62
2023-04-30T20:25:29.454Z,60.15
2023-04-30T20:27:58.107Z,59.67
2023-04-30T20:30:26.767Z,58.44
2023-04-30T20:32:55.682Z,58.04
2023-04-30T20:35:24.577Z,59.58
2023-04-30T20:37:55.905Z,60.52
2023-04-30T20:40:24.705Z,60.90
2023-04-30T20:42:53.466Z,60.97
2023-04-30T20:45:23.199Z,59.70
2023-04-30T20:47:51.919Z,60.71
2023-04-30T20:50:20.768Z,60.94
2023-04-30T20:52:49.415Z,61.38
2023-04-30T20:55:21.136Z,60.96
2023-04-30T20:57:50.709Z,62.01
2023-04-30T21:00:19.869Z,62.32
2023-04-30T21:02:48.648Z,61.90
2023-04-30T21:05:17.516Z,62.20
2023-04-30T21:07:46.387Z,62.28
2023-04-30T21:10:15.114Z,62.92
2023-04-30T21:12:45.369Z,61.95
2023-04-30T21:15:14.406Z,60.64
2023-04-30T21:17:43.105Z,60.01
2023-04-30T21:20:13.814Z,60.61
2023-04-30T21:22:42.525Z,61.71
2023-04-30T21:25:12.300Z,61.86
2023-04-30T21:27:41.424Z,61.93
2023-04-30T21:30:14.988Z,62.72
2023-04-30T21:32:47.166Z,63.23
2023-04-30T21:35:16.380Z,62.51
2023-04-30T21:37:45.116Z,62.45
2023-04-30T21:40:14.391Z,62.24
2023-04-30T21:42:43.007Z,62.19
2023-04-30T21:45:13.438Z,62.56
2023-04-30T21:47:42.677Z,62.60
2023-04-30T21:50:12.466Z,62.42
2023-04-30T21:52:41.651Z,62.62
2023-04-30T21:55:11.204Z,62.91
2023-04-30T21:57:39.830Z,62.92
2023-04-30T22:00:14.615Z,64.07
2023-04-30T22:02:51.287Z,64.51
2023-04-30T22:05:21.142Z,63.42
2023-04-30T22:07:49.943Z,63.29
2023-04-30T22:10:18.625Z,63.18
2023-04-30T22:12:48.134Z,63.68
2023-04-30T22:15:16.986Z,63.99
2023-04-30T22:17:46.340Z,62.88
2023-04-30T22:20:16.765Z,63.42
2023-04-30T22:22:45.459Z,64.05
2023-04-30T22:25:14.408Z,64.39
2023-04-30T22:27:43.469Z,64.37
2023-04-30T22:30:13.009Z,64.44
2023-04-30T22:32:42.419Z,64.72
2023-04-30T22:35:12.632Z,64.83
2023-04-30T22:37:43.002Z,65.05
2023-04-30T22:40:12.633Z,64.57
2023-04-30T22:42:42.277Z,63.88
2023-04-30T22:45:12.105Z,64.10
2023-04-30T22:47:42.479Z,64.67
2023-04-30T22:50:12.063Z,65.51
2023-04-30T22:52:42.344Z,65.01
2023-04-30T22:55:11.688Z,65.63
2023-04-30T22:57:40.392Z,65.42
2023-04-30T23:00:11.689Z,65.31
2023-04-30T23:02:40.403Z,65.33
2023-04-30T23:05:10.046Z,65.31
2023-04-30T23:07:38.953Z,65.77
2023-04-30T23:10:10.245Z,65.42
2023-04-30T23:12:38.941Z,65.26
2023-04-30T23:15:08.664Z,64.68
2023-04-30T23:17:37.424Z,65.22
2023-04-30T23:20:08.020Z,65.53
2023-04-30T23:22:36.756Z,65.58
2023-04-30T23:25:05.826Z,64.32
2023-04-30T23:27:36.140Z,64.45
2023-04-30T23:30:05.729Z,64.84
2023-04-30T23:32:34.504Z,65.69
2023-04-30T23:35:03.458Z,64.85
2023-04-30T23:37:32.198Z,65.74
2023-04-30T23:40:01.497Z,66.43
2023-04-30T23:42:30.282Z,65.81
2023-04-30T23:45:00.381Z,66.40
2023-04-30T23:47:30.572Z,64.94
2023-04-30T23:49:59.282Z,65.61
2023-04-30T23:52:27.932Z,66.09
2023-04-30T23:54:56.894Z,65.18
2023-04-30T23:57:27.633Z,65.98
2023-04-30T23:59:56.985Z,66.08
